createdAt,value
2023-05-09T00:02:03.180Z,94818.25
2023-05-09T00:04:32.870Z,94817.88
2023-05-09T00:07:00.824Z,94812.94
2023-05-09T00:09:28.750Z,94814.94
2023-05-09T00:11:58.033Z,94810.06
2023-05-09T00:14:26.314Z,94808.28
2023-05-09T00:16:54.964Z,94814.28
2023-05-09T00:19:22.976Z,94809.25
2023-05-09T00:21:50.876Z,94815.34
2023-05-09T00:24:18.742Z,94814.56
2023-05-09T00:26:46.593Z,94809.53
2023-05-09T00:29:15.905Z,94803.47
2023-05-09T00:31:43.841Z,94799.44
2023-05-09T00:34:11.765Z,94802.69
2023-05-09T00:36:39.685Z,94801.69
2023-05-09T00:39:07.905Z,94805.47
2023-05-09T00:41:35.810Z,94796.03
2023-05-09T00:44:03.894Z,94804.66
2023-05-09T00:46:33.321Z,94798.47
2023-05-09T00:49:01.654Z,94807.38
2023-05-09T00:51:30.082Z,94808.53
2023-05-09T00:53:58.107Z,94800.44
2023-05-09T00:56:26.859Z,94808.72
2023-05-09T00:58:55.696Z,94808.53
2023-05-09T01:01:23.840Z,94801.31
2023-05-09T01:03:53.996Z,94799.81
2023-05-09T01:06:30.217Z,94802.63
2023-05-09T01:09:03.838Z,94807.63
2023-05-09T01:11:37.440Z,94808.53
2023-05-09T01:14:13.381Z,94792.56
2023-05-09T01:16:44.708Z,94796.88
2023-05-09T01:19:33.080Z,94799.47
2023-05-09T01:22:04.794Z,94797.84
2023-05-09T01:24:48.032Z,94796.94
2023-05-09T01:27:39.064Z,94787.41
2023-05-09T01:30:11.655Z,94797.50
2023-05-09T01:32:41.508Z,94795.06
2023-05-09T01:35:14.401Z,94790.38
2023-05-09T01:37:44.989Z,94796.13
2023-05-09T01:40:16.721Z,94802.59
2023-05-09T01:42:46.693Z,94780.31
2023-05-09T01:45:17.617Z,94792.53
2023-05-09T01:47:46.027Z,94801.63
2023-05-09T01:50:14.386Z,94809.38
2023-05-09T01:52:44.428Z,94800.56
2023-05-09T01:55:13.800Z,94796.84
2023-05-09T01:57:43.163Z,94811.34
2023-05-09T02:00:14.373Z,94811.16
2023-05-09T02:02:46.726Z,94813.75
2023-05-09T02:05:16.903Z,94790.72
2023-05-09T02:07:47.147Z,94790.38
2023-05-09T02:10:16.974Z,94804.59
2023-05-09T02:12:45.008Z,94804.59
2023-05-09T02:15:13.148Z,94803.63
2023-05-09T02:17:42.368Z,94809.28
2023-05-09T02:20:13.437Z,94803.25
2023-05-09T02:22:44.074Z,94807.81
2023-05-09T02:25:15.468Z,94802.25
2023-05-09T02:27:46.495Z,94790.56
2023-05-09T02:30:20.639Z,94789.28
2023-05-09T02:32:51.609Z,94801.72
2023-05-09T02:35:21.883Z,94804.66
2023-05-09T02:37:50.382Z,94806.09
2023-05-09T02:40:20.519Z,94807.53
2023-05-09T02:42:48.549Z,94800.63
2023-05-09T02:45:17.154Z,94801.72
2023-05-09T02:47:45.120Z,94800.00
2023-05-09T02:50:13.670Z,94801.00
2023-05-09T02:52:42.974Z,94808.00
2023-05-09T02:55:11.420Z,94811.78
2023-05-09T02:57:39.379Z,94802.69
2023-05-09T03:00:09.851Z,94808.09
2023-05-09T03:02:38.150Z,94799.09
2023-05-09T03:05:06.860Z,94804.66
2023-05-09T03:07:34.968Z,94807.53
2023-05-09T03:10:04.766Z,94814.03
2023-05-09T03:12:32.678Z,94813.13
2023-05-09T03:15:01.310Z,94816.81
2023-05-09T03:17:29.274Z,94816.00
2023-05-09T03:19:57.141Z,94822.19
2023-05-09T03:22:25.134Z,94825.78
2023-05-09T03:24:53.067Z,94832.91
2023-05-09T03:27:22.485Z,94845.06
2023-05-09T03:29:50.381Z,94847.28
2023-05-09T03:32:18.309Z,94850.88
2023-05-09T03:34:46.414Z,94851.81
2023-05-09T03:37:14.349Z,94840.28
2023-05-09T03:39:42.213Z,94853.06
2023-05-09T03:42:10.112Z,94856.66
2023-05-09T03:44:39.337Z,94852.88
2023-05-09T03:47:07.516Z,94864.75
2023-05-09T03:49:36.390Z,94855.19
2023-05-09T03:52:04.677Z,94858.63
2023-05-09T03:54:32.600Z,94850.81
2023-05-09T03:57:00.537Z,94859.63
2023-05-09T03:59:28.386Z,94858.81
2023-05-09T04:01:57.781Z,94867.25
2023-05-09T04:04:25.714Z,94867.78
2023-05-09T04:06:53.695Z,94865.81
2023-05-09T04:09:21.577Z,94863.03
2023-05-09T04:11:49.499Z,94856.03
2023-05-09T04:14:17.528Z,94861.06
2023-05-09T04:16:45.396Z,94862.31
2023-05-09T04:19:14.788Z,94859.53
2023-05-09T04:21:42.653Z,94866.31
2023-05-09T04:24:10.723Z,94863.69
2023-05-09T04:26:39.173Z,94870.50
2023-05-09T04:29:07.196Z,94862.59
2023-05-09T04:31:35.255Z,94858.66
2023-05-09T04:34:03.228Z,94860.47
2023-05-09T04:36:34.008Z,94862.06
2023-05-09T04:39:02.130Z,94847.94
2023-05-09T04:41:30.017Z,94857.56
2023-05-09T04:43:57.924Z,94876.53
2023-05-09T04:46:26.097Z,94865.50
2023-05-09T04:48:54.302Z,94870.97
2023-05-09T04:51:22.393Z,94869.22
2023-05-09T04:53:52.285Z,94867.34
2023-05-09T04:56:20.373Z,94873.72
2023-05-09T04:58:48.767Z,94868.97
2023-05-09T05:01:17.201Z,94870.78
2023-05-09T05:03:46.023Z,94874.22
2023-05-09T05:06:13.948Z,94875.91
2023-05-09T05:08:41.836Z,94849.97
2023-05-09T05:11:11.065Z,94867.53
2023-05-09T05:13:39.031Z,94866.78
2023-05-09T05:16:07.183Z,94864.78
2023-05-09T05:18:35.107Z,94865.78
2023-05-09T05:21:03.025Z,94856.59
2023-05-09T05:23:30.898Z,94869.00
2023-05-09T05:25:58.808Z,94871.84
2023-05-09T05:28:28.072Z,94869.91
2023-05-09T05:30:56.070Z,94866.28
2023-05-09T05:33:24.412Z,94879.00
2023-05-09T05:35:52.541Z,94875.84
2023-05-09T05:38:20.493Z,94884.22
2023-05-09T05:40:48.791Z,94874.56
2023-05-09T05:43:16.980Z,94874.56
2023-05-09T05:45:51.305Z,94863.31
2023-05-09T05:48:19.212Z,94872.09
2023-05-09T05:50:47.284Z,94869.19
2023-05-09T05:53:15.173Z,94880.25
2023-05-09T05:55:43.240Z,94882.75
2023-05-09T05:58:11.200Z,94883.44
2023-05-09T06:00:39.267Z,94885.28
2023-05-09T06:03:08.849Z,94884.91
2023-05-09T06:05:37.102Z,94886.03
2023-05-09T06:08:05.785Z,94883.78
2023-05-09T06:10:33.715Z,94883.41
2023-05-09T06:13:01.673Z,94870.72
2023-05-09T06:15:29.606Z,94885.66
2023-05-09T06:17:57.652Z,94888.06
2023-05-09T06:20:27.304Z,94888.75
2023-05-09T06:22:55.578Z,94874.56
2023-05-09T06:25:23.516Z,94873.88
2023-05-09T06:27:51.444Z,94876.94
2023-05-09T06:30:26.452Z,94885.00
2023-05-09T06:32:55.053Z,94884.47
2023-05-09T06:35:23.281Z,94871.69
2023-05-09T06:37:52.612Z,94884.16
2023-05-09T06:40:20.904Z,94892.69
2023-05-09T06:42:48.850Z,94891.50
2023-05-09T06:45:16.991Z,94890.09
2023-05-09T06:47:45.293Z,94884.84
2023-05-09T06:50:13.282Z,94884.91
2023-05-09T06:52:41.300Z,94883.31
2023-05-09T06:55:12.146Z,94883.31
2023-05-09T06:57:40.600Z,94864.94
2023-05-09T07:00:10.155Z,94887.44
2023-05-09T07:02:42.011Z,94883.44
2023-05-09T07:05:11.258Z,94862.06
2023-05-09T07:07:39.513Z,94869.84
2023-05-09T07:10:12.038Z,94888.97
2023-05-09T07:12:42.181Z,94854.84
2023-05-09T07:15:11.487Z,94878.50
2023-05-09T07:17:39.583Z,94883.16
2023-05-09T07:20:08.742Z,94884.41
2023-05-09T07:22:37.577Z,94881.03
2023-05-09T07:25:07.997Z,94878.28
2023-05-09T07:27:35.911Z,94869.56
2023-05-09T07:30:05.733Z,94894.44
2023-05-09T07:32:33.999Z,94880.94
2023-05-09T07:35:02.026Z,94888.34
2023-05-09T07:37:30.020Z,94886.97
2023-05-09T07:39:57.957Z,94874.81
2023-05-09T07:42:26.390Z,94890.34
2023-05-09T07:44:54.450Z,94891.00
2023-05-09T07:47:23.752Z,94889.72
2023-05-09T07:49:51.839Z,94889.31
2023-05-09T07:52:19.992Z,94890.72
2023-05-09T07:54:48.106Z,94891.81
2023-05-09T07:57:16.166Z,94854.19
2023-05-09T07:59:44.176Z,94884.19
2023-05-09T08:02:12.153Z,94881.03
2023-05-09T08:04:42.320Z,94861.06
2023-05-09T08:07:11.956Z,94883.53
2023-05-09T08:09:39.921Z,94880.72
2023-05-09T08:12:08.586Z,94883.66
2023-05-09T08:14:36.570Z,94880.69
2023-05-09T08:17:04.533Z,94877.47
2023-05-09T08:19:32.495Z,94859.31
2023-05-09T08:22:01.926Z,94883.56
2023-05-09T08:24:29.816Z,94880.81
2023-05-09T08:26:57.757Z,94885.25
2023-05-09T08:29:25.708Z,94883.28
2023-05-09T08:31:53.811Z,94884.06
2023-05-09T08:34:22.207Z,94888.56
2023-05-09T08:36:50.230Z,94875.44
2023-05-09T08:39:19.609Z,94873.81
2023-05-09T08:41:47.590Z,94888.16
2023-05-09T08:44:15.780Z,94862.13
2023-05-09T08:46:45.476Z,94868.81
2023-05-09T08:49:13.676Z,94875.03
2023-05-09T08:51:42.028Z,94871.81
2023-05-09T08:54:10.645Z,94876.03
2023-05-09T08:56:40.533Z,94874.84
2023-05-09T08:59:08.816Z,94870.78
2023-05-09T09:01:36.886Z,94849.53
2023-05-09T09:04:07.554Z,94872.28
2023-05-09T09:06:36.804Z,94874.50
2023-05-09T09:09:08.535Z,94872.63
2023-05-09T09:11:37.765Z,94870.22
2023-05-09T09:14:13.994Z,94877.09
2023-05-09T09:16:43.435Z,94876.38
2023-05-09T09:19:14.076Z,94870.97
2023-05-09T09:21:44.122Z,94875.22
2023-05-09T09:24:14.674Z,94866.88
2023-05-09T09:26:48.666Z,94877.81
2023-05-09T09:29:21.588Z,94862.22
2023-05-09T09:31:54.261Z,94879.25
2023-05-09T09:34:23.570Z,94876.00
2023-05-09T09:36:51.951Z,94875.63
2023-05-09T09:39:21.757Z,94877.41
2023-05-09T09:41:52.192Z,94861.91
2023-05-09T09:44:22.992Z,94876.22
2023-05-09T09:46:52.078Z,94874.38
2023-05-09T09:49:21.263Z,94870.69
2023-05-09T09:51:52.525Z,94885.41
2023-05-09T09:54:20.651Z,94882.97
2023-05-09T09:56:50.403Z,94885.94
2023-05-09T09:59:20.180Z,94891.63
2023-05-09T10:01:57.236Z,94879.72
2023-05-09T10:04:25.822Z,94874.47
2023-05-09T10:06:58.906Z,94878.66
2023-05-09T10:09:31.514Z,94887.59
2023-05-09T10:12:04.510Z,94832.97
2023-05-09T10:14:35.273Z,94876.81
2023-05-09T10:17:06.469Z,94867.16
2023-05-09T10:19:37.023Z,94865.13
2023-05-09T10:22:09.636Z,94861.88
2023-05-09T10:24:46.675Z,94862.66
2023-05-09T10:27:16.055Z,94874.16
2023-05-09T10:29:47.532Z,94872.00
2023-05-09T10:32:24.738Z,94870.19
2023-05-09T10:34:56.176Z,94870.38
2023-05-09T10:37:24.469Z,94864.34
2023-05-09T10:39:53.957Z,94862.34
2023-05-09T10:42:23.199Z,94861.75
2023-05-09T10:44:51.242Z,94846.19
2023-05-09T10:47:21.749Z,94867.56
2023-05-09T10:49:50.502Z,94864.16
2023-05-09T10:52:18.956Z,94833.25
2023-05-09T10:55:00.623Z,94858.28
2023-05-09T10:57:29.962Z,94857.47
2023-05-09T10:59:58.593Z,94860.53
2023-05-09T11:02:31.066Z,94836.50
2023-05-09T11:05:15.653Z,94861.53
2023-05-09T11:07:44.381Z,94866.16
2023-05-09T11:10:18.916Z,94855.81
2023-05-09T11:12:58.143Z,94859.22
2023-05-09T11:15:27.731Z,94868.97
2023-05-09T11:18:09.001Z,94867.56
2023-05-09T11:20:43.639Z,94847.41
2023-05-09T11:23:15.832Z,94868.34
2023-05-09T11:25:46.684Z,94835.47
2023-05-09T11:28:28.166Z,94871.16
2023-05-09T11:31:12.166Z,94856.38
2023-05-09T11:33:43.093Z,94865.03
2023-05-09T11:36:25.121Z,94856.91
2023-05-09T11:39:03.329Z,94852.09
2023-05-09T11:41:31.586Z,94855.59
2023-05-09T11:44:00.440Z,94865.63
2023-05-09T11:46:28.820Z,94863.19
2023-05-09T11:48:58.249Z,94847.72
2023-05-09T11:51:26.946Z,94860.03
2023-05-09T11:53:55.108Z,94860.66
2023-05-09T11:56:24.097Z,94849.19
2023-05-09T11:58:53.404Z,94849.69
2023-05-09T12:01:21.881Z,94850.91
2023-05-09T12:03:50.663Z,94833.09
2023-05-09T12:06:21.109Z,94860.47
2023-05-09T12:08:49.602Z,94855.41
2023-05-09T12:11:17.494Z,94839.31
2023-05-09T12:13:49.840Z,94864.75
2023-05-09T12:16:19.400Z,94862.22
2023-05-09T12:18:48.434Z,94859.19
2023-05-09T12:21:17.065Z,94854.50
2023-05-09T12:23:49.907Z,94858.69
2023-05-09T12:26:19.048Z,94865.19
2023-05-09T12:28:48.478Z,94857.47
2023-05-09T12:31:17.408Z,94860.22
2023-05-09T12:33:45.536Z,94853.16
2023-05-09T12:36:16.045Z,94841.00
2023-05-09T12:38:55.346Z,94857.16
2023-05-09T12:43:56.114Z,94857.13
2023-05-09T12:46:24.292Z,94859.50
2023-05-09T12:48:52.411Z,94859.81
2023-05-09T12:51:21.784Z,94853.28
2023-05-09T12:53:49.848Z,94857.75
2023-05-09T12:56:20.246Z,94853.09
2023-05-09T12:58:52.405Z,94850.75
2023-05-09T13:01:21.317Z,94845.72
2023-05-09T13:03:53.003Z,94846.56
2023-05-09T13:06:21.218Z,94845.59
2023-05-09T13:08:59.154Z,94823.69
2023-05-09T13:11:28.791Z,94837.66
2023-05-09T13:13:56.737Z,94809.72
2023-05-09T13:16:24.740Z,94821.78
2023-05-09T13:18:52.847Z,94835.09
2023-05-09T13:21:21.105Z,94832.25
2023-05-09T13:23:50.276Z,94831.06
2023-05-09T13:26:18.232Z,94828.25
2023-05-09T13:28:47.711Z,94835.41
2023-05-09T13:31:15.824Z,94813.94
2023-05-09T13:33:43.900Z,94832.47
2023-05-09T13:36:11.957Z,94843.41
2023-05-09T13:38:40.954Z,94832.69
2023-05-09T13:41:09.088Z,94827.28
2023-05-09T13:43:38.147Z,94830.53
2023-05-09T13:46:07.701Z,94831.53
2023-05-09T13:48:35.680Z,94825.25
2023-05-09T13:51:06.302Z,94828.59
2023-05-09T13:53:34.707Z,94837.50
2023-05-09T13:56:03.249Z,94840.44
2023-05-09T13:58:31.148Z,94836.81
2023-05-09T14:00:59.131Z,94834.78
2023-05-09T14:03:28.751Z,94830.66
2023-05-09T14:05:56.731Z,94805.50
2023-05-09T14:08:25.231Z,94838.88
2023-05-09T14:10:53.278Z,94829.59
2023-05-09T14:13:21.294Z,94833.34
2023-05-09T14:15:49.291Z,94822.56
2023-05-09T14:18:20.138Z,94802.72
2023-05-09T14:20:50.378Z,94834.28
2023-05-09T14:23:18.316Z,94834.03
2023-05-09T14:25:46.259Z,94835.75
2023-05-09T14:28:14.805Z,94826.28
2023-05-09T14:30:42.962Z,94841.66
2023-05-09T14:33:11.158Z,94816.66
2023-05-09T14:35:41.221Z,94835.41
2023-05-09T14:38:12.489Z,94818.66
2023-05-09T14:40:40.461Z,94834.97
2023-05-09T14:43:09.509Z,94834.03
2023-05-09T14:45:37.472Z,94825.78
2023-05-09T14:48:05.812Z,94824.91
2023-05-09T14:50:33.828Z,94815.31
2023-05-09T14:53:02.113Z,94827.84
2023-05-09T14:55:31.527Z,94826.97
2023-05-09T14:57:59.475Z,94811.59
2023-05-09T15:00:28.771Z,94830.03
2023-05-09T15:02:57.609Z,94828.50
2023-05-09T15:05:25.976Z,94829.28
2023-05-09T15:07:53.852Z,94820.41
2023-05-09T15:10:21.858Z,94831.75
2023-05-09T15:12:51.159Z,94826.97
2023-05-09T15:15:21.032Z,94806.41
2023-05-09T15:17:48.988Z,94824.66
2023-05-09T15:20:18.679Z,94831.75
2023-05-09T15:22:47.419Z,94818.06
2023-05-09T15:25:16.396Z,94822.13
2023-05-09T15:27:44.474Z,94830.78
2023-05-09T15:30:15.921Z,94825.56
2023-05-09T15:32:44.184Z,94829.25
2023-05-09T15:35:18.545Z,94811.59
2023-05-09T15:37:46.741Z,94840.19
2023-05-09T15:40:15.089Z,94828.25
2023-05-09T15:42:43.419Z,94825.00
2023-05-09T15:45:11.636Z,94834.34
2023-05-09T15:47:40.992Z,94839.41
2023-05-09T15:50:10.050Z,94840.13
2023-05-09T15:52:38.111Z,94818.44
2023-05-09T15:55:07.154Z,94840.53
2023-05-09T15:57:35.227Z,94839.47
2023-05-09T16:00:04.242Z,94835.78
2023-05-09T16:02:32.333Z,94828.50
2023-05-09T16:05:01.753Z,94823.16
2023-05-09T16:07:29.951Z,94840.41
2023-05-09T16:09:57.863Z,94838.84
2023-05-09T16:12:26.904Z,94839.13
2023-05-09T16:14:54.795Z,94826.91
2023-05-09T16:17:22.891Z,94819.44
2023-05-09T16:19:50.846Z,94820.59
2023-05-09T16:22:20.258Z,94845.59
2023-05-09T16:24:49.229Z,94834.78
2023-05-09T16:27:17.321Z,94848.19
2023-05-09T16:29:45.570Z,94850.50
2023-05-09T16:32:13.513Z,94847.91
2023-05-09T16:34:41.552Z,94842.59
2023-05-09T16:37:10.090Z,94824.91
2023-05-09T16:39:39.434Z,94847.81
2023-05-09T16:42:07.488Z,94852.84
2023-05-09T16:44:35.491Z,94834.22
2023-05-09T16:47:03.457Z,94857.59
2023-05-09T16:49:31.354Z,94855.34
2023-05-09T16:51:59.482Z,94857.59
2023-05-09T16:54:27.463Z,94857.66
2023-05-09T16:56:56.734Z,94834.78
2023-05-09T16:59:24.618Z,94858.81
2023-05-09T17:01:53.892Z,94862.75
2023-05-09T17:04:21.906Z,94839.50
2023-05-09T17:06:51.735Z,94857.84
2023-05-09T17:09:19.978Z,94860.94
2023-05-09T17:11:48.342Z,94855.78
2023-05-09T17:14:17.666Z,94863.13
2023-05-09T17:16:45.727Z,94828.41
2023-05-09T17:19:13.718Z,94841.06
2023-05-09T17:21:41.779Z,94854.34
2023-05-09T17:24:10.124Z,94840.06
2023-05-09T17:26:38.700Z,94863.66
2023-05-09T17:29:07.016Z,94844.06
2023-05-09T17:31:36.272Z,94864.88
2023-05-09T17:34:05.639Z,94866.63
2023-05-09T17:36:33.817Z,94851.50
2023-05-09T17:39:01.934Z,94857.69
2023-05-09T17:41:29.913Z,94831.41
2023-05-09T17:43:57.984Z,94849.22
2023-05-09T17:46:26.429Z,94852.84
2023-05-09T17:48:57.642Z,94833.00
2023-05-09T17:51:25.769Z,94859.00
2023-05-09T17:53:53.798Z,94859.50
2023-05-09T17:56:22.447Z,94852.38
2023-05-09T17:58:53.012Z,94869.28
2023-05-09T18:01:21.350Z,94856.28
2023-05-09T18:03:49.390Z,94867.19
2023-05-09T18:06:19.354Z,94864.44
2023-05-09T18:08:47.316Z,94858.31
2023-05-09T18:11:15.698Z,94838.81
2023-05-09T18:13:43.709Z,94822.41
2023-05-09T18:16:11.770Z,94854.25
2023-05-09T18:18:39.788Z,94865.94
2023-05-09T18:21:09.596Z,94869.66
2023-05-09T18:23:38.958Z,94874.25
2023-05-09T18:26:07.058Z,94870.34
2023-05-09T18:28:39.443Z,94865.13
2023-05-09T18:31:10.189Z,94877.34
2023-05-09T18:33:39.148Z,94885.28
2023-05-09T18:36:08.951Z,94886.91
2023-05-09T18:38:39.225Z,94880.25
2023-05-09T18:41:07.415Z,94883.16
2023-05-09T18:43:35.879Z,94877.00
2023-05-09T18:46:05.265Z,94872.13
2023-05-09T18:48:33.564Z,94867.25
2023-05-09T18:51:01.555Z,94860.44
2023-05-09T18:53:37.465Z,94841.63
2023-05-09T18:56:07.697Z,94848.44
2023-05-09T18:58:35.911Z,94843.06
2023-05-09T19:01:04.136Z,94878.13
2023-05-09T19:03:32.347Z,94860.28
2023-05-09T19:06:00.853Z,94889.00
2023-05-09T19:08:29.288Z,94882.69
2023-05-09T19:10:59.134Z,94888.50
2023-05-09T19:13:28.773Z,94885.28
2023-05-09T19:15:57.928Z,94886.59
2023-05-09T19:18:26.267Z,94884.44
2023-05-09T19:20:54.235Z,94889.50
2023-05-09T19:23:23.516Z,94891.91
2023-05-09T19:25:53.805Z,94889.66
2023-05-09T19:28:22.965Z,94872.94
2023-05-09T19:30:52.749Z,94889.50
2023-05-09T19:33:20.791Z,94883.16
2023-05-09T19:35:48.811Z,94894.53
2023-05-09T19:38:16.785Z,94880.91
2023-05-09T19:40:44.695Z,94889.00
2023-05-09T19:43:12.728Z,94879.91
2023-05-09T19:45:40.681Z,94871.16
2023-05-09T19:48:15.143Z,94864.34
2023-05-09T19:50:43.444Z,94862.38
2023-05-09T19:53:11.547Z,94884.63
2023-05-09T19:55:39.615Z,94886.88
2023-05-09T19:58:07.546Z,94876.34
2023-05-09T20:00:36.064Z,94880.91
2023-05-09T20:03:04.916Z,94884.13
2023-05-09T20:05:34.667Z,94879.94
2023-05-09T20:08:02.561Z,94877.47
2023-05-09T20:10:30.887Z,94877.16
2023-05-09T20:12:59.498Z,94875.69
2023-05-09T20:15:27.869Z,94852.47
2023-05-09T20:17:56.115Z,94881.03
2023-05-09T20:20:24.089Z,94877.31
2023-05-09T20:22:53.437Z,94858.63
2023-05-09T20:25:21.492Z,94871.13
2023-05-09T20:27:53.295Z,94881.69
2023-05-09T20:30:21.557Z,94871.31
2023-05-09T20:32:49.587Z,94870.16
2023-05-09T20:35:17.610Z,94871.78
2023-05-09T20:37:45.550Z,94855.56
2023-05-09T20:40:15.372Z,94866.28
2023-05-09T20:42:43.771Z,94859.59
2023-05-09T20:45:11.938Z,94852.00
2023-05-09T20:47:40.664Z,94854.41
2023-05-09T20:50:09.726Z,94854.59
2023-05-09T20:52:37.659Z,94859.94
2023-05-09T20:55:06.239Z,94852.66
2023-05-09T20:57:35.577Z,94855.41
2023-05-09T21:00:03.943Z,94825.53
2023-05-09T21:02:32.006Z,94846.31
2023-05-09T21:05:00.045Z,94848.91
2023-05-09T21:07:28.172Z,94829.44
2023-05-09T21:09:57.104Z,94849.91
2023-05-09T21:12:25.068Z,94846.63
2023-05-09T21:14:54.324Z,94852.31
2023-05-09T21:17:22.390Z,94848.44
2023-05-09T21:19:51.882Z,94852.78
2023-05-09T21:22:19.821Z,94845.47
2023-05-09T21:24:47.755Z,94836.22
2023-05-09T21:27:15.672Z,94836.41
2023-05-09T21:29:43.611Z,94835.94
2023-05-09T21:32:12.910Z,94842.44
2023-05-09T21:34:40.806Z,94848.75
2023-05-09T21:37:08.722Z,94846.47
2023-05-09T21:39:36.622Z,94843.22
2023-05-09T21:42:04.825Z,94839.50
2023-05-09T21:44:32.781Z,94843.56
2023-05-09T21:47:00.893Z,94842.88
2023-05-09T21:49:30.280Z,94833.47
2023-05-09T21:51:58.312Z,94835.91
2023-05-09T21:54:26.324Z,94827.00
2023-05-09T21:56:54.228Z,94837.38
2023-05-09T21:59:22.354Z,94829.91
2023-05-09T22:01:50.505Z,94825.19
2023-05-09T22:04:18.452Z,94826.34
2023-05-09T22:06:47.745Z,94807.50
2023-05-09T22:09:16.004Z,94808.16
2023-05-09T22:11:43.907Z,94793.22
2023-05-09T22:14:12.474Z,94801.03
2023-05-09T22:16:40.423Z,94789.97
2023-05-09T22:19:08.512Z,94812.69
2023-05-09T22:21:36.445Z,94797.41
2023-05-09T22:24:07.709Z,94818.19
2023-05-09T22:26:35.676Z,94817.38
2023-05-09T22:29:03.656Z,94819.81
2023-05-09T22:31:31.668Z,94791.84
2023-05-09T22:33:59.583Z,94816.06
2023-05-09T22:36:27.510Z,94816.91
2023-05-09T22:38:55.597Z,94808.63
2023-05-09T22:41:25.168Z,94808.78
2023-05-09T22:43:53.089Z,94807.16
2023-05-09T22:46:21.027Z,94799.16
2023-05-09T22:48:49.031Z,94804.19
2023-05-09T22:51:16.976Z,94807.56
2023-05-09T22:53:44.979Z,94786.16
2023-05-09T22:56:13.070Z,94800.75
2023-05-09T22:58:42.398Z,94802.03
2023-05-09T23:01:10.448Z,94808.69
2023-05-09T23:03:38.414Z,94787.16
2023-05-09T23:06:06.620Z,94798.03
2023-05-09T23:08:34.812Z,94797.53
2023-05-09T23:11:02.987Z,94779.03
2023-05-09T23:13:31.075Z,94800.97
2023-05-09T23:16:00.381Z,94803.22
2023-05-09T23:18:28.682Z,94804.19
2023-05-09T23:20:56.758Z,94793.81
2023-05-09T23:23:24.689Z,94797.38
2023-05-09T23:25:52.624Z,94796.75
2023-05-09T23:28:24.989Z,94796.28
2023-05-09T23:30:53.023Z,94779.09
2023-05-09T23:33:22.633Z,94786.56
2023-05-09T23:35:50.583Z,94793.34
2023-05-09T23:38:18.586Z,94763.16
2023-05-09T23:40:47.204Z,94781.69
2023-05-09T23:43:15.517Z,94783.94
2023-05-09T23:45:43.484Z,94782.66
2023-05-09T23:48:11.366Z,94789.16
2023-05-09T23:50:40.640Z,94786.38
2023-05-09T23:53:08.617Z,94774.41
2023-05-09T23:55:38.194Z,94773.41
2023-05-09T23:58:06.620Z,94734.44
